Time;durP1;ratioP1;P1;durP2;ratioP2;P2;SDS_P1;SDS_P2;PMS_P1;PMS_P2;Temp;Humidity;BMP_temperature;BMP_pressure;BME280_temperature;BME280_humidity;BME280_pressure;Samples;Min_cycle;Max_cycle;Signal;HPM_P1;HPM_P2
2023/07/09 00:01:52;;;;;;;1.40;0.47;;;21.60;99.90;;;;;;5003279;28;20701;-71
2023/07/09 00:04:19;;;;;;;1.70;0.63;;;21.60;99.90;;;;;;5007179;28;20050;-70
2023/07/09 00:06:45;;;;;;;1.65;0.77;;;21.70;99.90;;;;;;5004810;28;20038;-71
2023/07/09 00:09:16;;;;;;;0.90;0.70;;;21.60;99.90;;;;;;4999595;28;20057;-71
2023/07/09 00:11:43;;;;;;;1.02;0.70;;;21.60;99.90;;;;;;5002196;28;20066;-71
2023/07/09 00:14:16;;;;;;;2.80;0.73;;;21.60;99.90;;;;;;5004888;28;20041;-70
2023/07/09 00:16:44;;;;;;;0.90;0.50;;;21.50;99.90;;;;;;4995177;28;20044;-70
2023/07/09 00:19:19;;;;;;;0.80;0.28;;;21.50;99.90;;;;;;4983781;28;20475;-71
2023/07/09 00:21:49;;;;;;;1.40;0.50;;;21.50;99.90;;;;;;4988237;28;20130;-71
2023/07/09 00:24:14;;;;;;;0.80;0.45;;;21.40;99.90;;;;;;5002318;28;20073;-71
2023/07/09 00:26:41;;;;;;;0.52;0.28;;;21.40;99.90;;;;;;4996993;28;20081;-71
2023/07/09 00:29:13;;;;;;;0.95;0.30;;;21.40;99.90;;;;;;5010592;28;20038;-71
2023/07/09 00:31:40;;;;;;;0.30;0.25;;;21.30;99.90;;;;;;5011021;28;20034;-71
2023/07/09 00:34:14;;;;;;;1.05;0.50;;;21.30;99.90;;;;;;5009652;28;20049;-71
2023/07/09 00:36:43;;;;;;;0.60;0.17;;;21.20;99.90;;;;;;5001915;28;20038;-71
2023/07/09 00:39:20;;;;;;;0.20;0.13;;;21.20;99.90;;;;;;5007497;28;20044;-70
2023/07/09 00:41:47;;;;;;;0.08;0.08;;;21.10;99.90;;;;;;5004425;28;20042;-71
2023/07/09 00:44:33;;;;;;;0.45;0.30;;;21.00;99.90;;;;;;5003435;28;20046;-71
2023/07/09 00:47:00;;;;;;;0.93;0.30;;;21.00;99.90;;;;;;5006485;28;20363;-71
2023/07/09 00:49:46;;;;;;;0.77;0.30;;;20.90;99.90;;;;;;5003520;28;20538;-71
2023/07/09 00:52:37;;;;;;;1.20;0.57;;;20.80;99.90;;;;;;5005665;28;20099;-71
2023/07/09 00:55:10;;;;;;;0.73;0.30;;;20.70;99.90;;;;;;4985024;28;20057;-70
2023/07/09 00:57:38;;;;;;;0.45;0.10;;;20.70;99.90;;;;;;5003299;28;20123;-71
2023/07/09 01:00:09;;;;;;;0.73;0.20;;;20.80;99.90;;;;;;5005327;28;20082;-72
2023/07/09 01:02:43;;;;;;;1.08;0.65;;;20.70;99.90;;;;;;5006881;28;20037;-74
2023/07/09 01:05:12;;;;;;;0.82;0.20;;;20.70;99.90;;;;;;5000682;28;20088;-73
2023/07/09 01:07:38;;;;;;;0.50;0.20;;;20.70;99.90;;;;;;5003512;28;20446;-73
2023/07/09 01:10:05;;;;;;;1.05;0.57;;;20.70;99.90;;;;;;5005981;28;20121;-74
2023/07/09 01:12:30;;;;;;;1.20;0.50;;;20.70;99.90;;;;;;5005980;28;20551;-73
2023/07/09 01:14:58;;;;;;;0.93;0.40;;;20.70;99.90;;;;;;5003349;28;20040;-73
2023/07/09 01:17:28;;;;;;;0.68;0.30;;;20.60;99.90;;;;;;5004071;28;20034;-73
2023/07/09 01:19:55;;;;;;;1.48;0.40;;;20.60;99.90;;;;;;5004634;28;20077;-73
2023/07/09 01:22:22;;;;;;;1.27;0.47;;;20.60;99.90;;;;;;5003559;28;20034;-73
2023/07/09 01:25:01;;;;;;;0.65;0.40;;;20.50;99.90;;;;;;4999380;28;20391;-74
2023/07/09 01:27:35;;;;;;;1.02;0.47;;;20.50;99.90;;;;;;5000686;28;20043;-73
2023/07/09 01:30:06;;;;;;;0.85;0.40;;;20.40;99.90;;;;;;5006079;28;20045;-73
2023/07/09 01:32:33;;;;;;;1.05;0.57;;;20.40;99.90;;;;;;5007565;28;20117;-73
2023/07/09 01:35:04;;;;;;;0.90;0.40;;;20.30;99.90;;;;;;5005148;28;20117;-73
2023/07/09 01:37:31;;;;;;;1.70;0.32;;;20.30;99.90;;;;;;5000094;28;20129;-74
2023/07/09 01:39:57;;;;;;;1.13;0.40;;;20.30;99.90;;;;;;5005441;28;20042;-73
2023/07/09 01:42:25;;;;;;;0.35;0.20;;;20.20;99.90;;;;;;4998192;28;20033;-73
2023/07/09 01:44:53;;;;;;;0.80;0.45;;;20.20;99.90;;;;;;4997049;28;20037;-73
2023/07/09 01:47:19;;;;;;;0.63;0.30;;;20.10;99.90;;;;;;5002716;28;20045;-73
2023/07/09 01:49:48;;;;;;;0.52;0.30;;;20.10;99.90;;;;;;5003552;28;20041;-73
2023/07/09 01:52:16;;;;;;;1.08;0.50;;;20.10;99.90;;;;;;4997150;28;20038;-73
2023/07/09 01:54:46;;;;;;;1.58;0.40;;;20.10;99.90;;;;;;5007561;28;20518;-73
2023/07/09 01:57:24;;;;;;;0.20;0.20;;;20.10;99.90;;;;;;5013874;28;20088;-73
2023/07/09 01:59:54;;;;;;;0.77;0.28;;;20.00;99.90;;;;;;5009802;28;20050;-73
2023/07/09 02:02:21;;;;;;;1.08;0.40;;;20.00;99.90;;;;;;4997386;28;20039;-73
2023/07/09 02:04:48;;;;;;;0.40;0.20;;;20.00;99.90;;;;;;5002215;28;20511;-73
2023/07/09 02:07:14;;;;;;;0.63;0.35;;;20.00;99.90;;;;;;5000608;28;20060;-73
2023/07/09 02:09:40;;;;;;;0.80;0.30;;;19.90;99.90;;;;;;5002215;28;20046;-73
2023/07/09 02:12:07;;;;;;;2.17;0.70;;;19.90;99.90;;;;;;5004162;28;20502;-73
2023/07/09 02:14:32;;;;;;;0.43;0.25;;;19.80;99.90;;;;;;5000622;28;20080;-73
2023/07/09 02:16:58;;;;;;;0.73;0.30;;;19.80;99.90;;;;;;4998869;28;20518;-73
2023/07/09 02:19:24;;;;;;;0.43;0.30;;;19.80;99.90;;;;;;4999694;28;20483;-73
2023/07/09 02:21:49;;;;;;;0.40;0.15;;;19.80;99.90;;;;;;5008679;28;20042;-73
2023/07/09 02:24:15;;;;;;;0.60;0.20;;;19.70;99.90;;;;;;4999075;28;20046;-73
2023/07/09 02:26:41;;;;;;;0.60;0.28;;;19.70;99.90;;;;;;5002762;28;20608;-73
2023/07/09 02:29:07;;;;;;;0.30;0.20;;;19.70;99.90;;;;;;5004940;28;20038;-73
2023/07/09 02:31:33;;;;;;;0.40;0.17;;;19.70;99.90;;;;;;4998277;28;20046;-73
2023/07/09 02:33:59;;;;;;;0.85;0.43;;;19.70;99.90;;;;;;5001241;28;20041;-73
2023/07/09 02:36:26;;;;;;;0.20;0.13;;;19.60;99.90;;;;;;4990691;28;20034;-73
2023/07/09 02:38:51;;;;;;;0.17;0.10;;;19.60;99.90;;;;;;5002687;28;20509;-73
2023/07/09 02:41:17;;;;;;;0.85;0.50;;;19.50;99.90;;;;;;4997468;28;20042;-73
2023/07/09 02:43:43;;;;;;;0.47;0.30;;;19.50;99.90;;;;;;4990749;28;20034;-73
2023/07/09 02:46:09;;;;;;;0.47;0.17;;;19.50;99.90;;;;;;5000536;28;20046;-73
2023/07/09 02:48:34;;;;;;;0.30;0.15;;;19.40;99.90;;;;;;5001622;28;20687;-72
2023/07/09 02:51:00;;;;;;;0.22;0.20;;;19.40;99.90;;;;;;4998455;28;20057;-73
2023/07/09 02:53:27;;;;;;;0.43;0.25;;;19.30;99.90;;;;;;4997816;28;20039;-74
2023/07/09 02:55:52;;;;;;;1.15;0.47;;;19.30;99.90;;;;;;5000237;28;20081;-73
2023/07/09 02:58:18;;;;;;;0.88;0.40;;;19.30;99.90;;;;;;5017014;28;20558;-73
2023/07/09 03:00:51;;;;;;;1.25;0.20;;;19.30;99.90;;;;;;4995549;28;20580;-73
2023/07/09 03:03:17;;;;;;;0.52;0.30;;;19.30;99.90;;;;;;5000107;28;20053;-73
2023/07/09 03:05:45;;;;;;;0.57;0.30;;;19.30;99.90;;;;;;5003302;28;20401;-73
2023/07/09 03:08:11;;;;;;;1.92;0.70;;;19.20;99.90;;;;;;5005182;28;20045;-73
2023/07/09 03:10:38;;;;;;;0.60;0.30;;;19.20;99.90;;;;;;4997096;28;20508;-73
2023/07/09 03:13:04;;;;;;;0.88;0.38;;;19.20;99.90;;;;;;5005455;28;20038;-73
2023/07/09 03:15:31;;;;;;;1.20;0.50;;;19.20;99.90;;;;;;5003377;28;20049;-73
2023/07/09 03:17:57;;;;;;;1.75;0.85;;;19.10;99.90;;;;;;5000208;28;20671;-73
2023/07/09 03:20:23;;;;;;;1.30;0.50;;;19.10;99.90;;;;;;5000977;28;20613;-73
2023/07/09 03:22:48;;;;;;;0.80;0.50;;;19.10;99.90;;;;;;5000320;28;20137;-73
2023/07/09 03:25:14;;;;;;;1.88;0.60;;;19.10;99.90;;;;;;5000280;28;20042;-73
2023/07/09 03:27:40;;;;;;;0.90;0.57;;;19.00;99.90;;;;;;4999755;28;20456;-73
2023/07/09 03:30:06;;;;;;;1.15;0.60;;;19.00;99.90;;;;;;4993880;28;20745;-73
2023/07/09 03:32:32;;;;;;;1.95;0.77;;;19.10;99.90;;;;;;5004428;28;20042;-73
2023/07/09 03:34:57;;;;;;;1.40;0.68;;;19.00;99.90;;;;;;5003099;28;20093;-73
2023/07/09 03:37:23;;;;;;;3.38;0.52;;;19.00;99.90;;;;;;4994673;28;20046;-73
2023/07/09 03:39:49;;;;;;;1.60;0.65;;;19.00;99.90;;;;;;5000039;28;20050;-73
2023/07/09 03:42:15;;;;;;;0.52;0.40;;;19.00;99.90;;;;;;4999208;28;20030;-73
2023/07/09 03:44:40;;;;;;;1.33;0.70;;;19.00;99.90;;;;;;5004815;28;20463;-73
2023/07/09 03:47:07;;;;;;;1.05;0.50;;;19.00;99.90;;;;;;4990717;28;20054;-73
2023/07/09 03:49:33;;;;;;;1.48;0.60;;;19.00;99.90;;;;;;4999466;28;20046;-73
2023/07/09 03:51:58;;;;;;;0.75;0.43;;;19.00;99.90;;;;;;4992617;28;20042;-73
2023/07/09 03:54:24;;;;;;;1.02;0.43;;;19.00;99.90;;;;;;5002133;28;20089;-73
2023/07/09 03:56:50;;;;;;;1.45;0.70;;;19.00;99.90;;;;;;4989494;28;20043;-73
2023/07/09 03:59:16;;;;;;;1.23;0.70;;;19.00;99.90;;;;;;5002884;28;20081;-73
2023/07/09 04:01:46;;;;;;;1.73;0.55;;;19.00;99.90;;;;;;4997112;28;20689;-73
2023/07/09 04:04:12;;;;;;;0.95;0.47;;;19.00;99.90;;;;;;5002579;28;20390;-73
2023/07/09 04:06:38;;;;;;;0.73;0.50;;;19.00;99.90;;;;;;5005760;28;20045;-73
2023/07/09 04:09:04;;;;;;;0.95;0.70;;;19.10;99.90;;;;;;5002629;28;20042;-73
2023/07/09 04:11:30;;;;;;;1.60;0.30;;;19.20;99.90;;;;;;5007269;28;20073;-73
2023/07/09 04:13:55;;;;;;;0.70;0.50;;;19.20;99.90;;;;;;4984634;28;20031;-73
2023/07/09 04:16:21;;;;;;;1.50;0.52;;;19.30;99.90;;;;;;5003061;28;20497;-73
2023/07/09 04:18:47;;;;;;;0.90;0.40;;;19.30;99.90;;;;;;5006387;28;20118;-73
2023/07/09 04:21:13;;;;;;;1.40;0.47;;;19.30;99.90;;;;;;4992599;28;20409;-73
2023/07/09 04:23:38;;;;;;;1.90;0.57;;;19.40;99.90;;;;;;5000571;28;20046;-73
2023/07/09 04:26:08;;;;;;;0.80;0.45;;;19.40;99.90;;;;;;5000508;28;20359;-73
2023/07/09 04:28:34;;;;;;;2.60;0.40;;;19.50;99.90;;;;;;5006215;28;20042;-73
2023/07/09 04:31:00;;;;;;;1.25;0.35;;;19.60;99.90;;;;;;5005665;28;20393;-73
2023/07/09 04:33:26;;;;;;;1.05;0.60;;;19.60;99.90;;;;;;5006151;28;20042;-73
2023/07/09 04:35:52;;;;;;;0.90;0.35;;;19.70;99.90;;;;;;5005160;28;20034;-73
2023/07/09 04:38:18;;;;;;;1.08;0.50;;;19.70;99.90;;;;;;5004131;28;20038;-73
2023/07/09 04:40:44;;;;;;;1.05;0.52;;;19.80;99.90;;;;;;5007172;28;20046;-73
2023/07/09 04:43:10;;;;;;;1.17;0.40;;;19.90;99.90;;;;;;5003251;28;20085;-73
2023/07/09 04:45:36;;;;;;;1.63;0.75;;;20.00;99.90;;;;;;4993405;28;21091;-73
2023/07/09 04:48:02;;;;;;;0.98;0.52;;;20.00;99.90;;;;;;4994250;28;20840;-73
2023/07/09 04:50:27;;;;;;;2.15;0.63;;;20.10;99.90;;;;;;5006757;28;20038;-73
2023/07/09 04:52:53;;;;;;;0.60;0.40;;;20.20;99.90;;;;;;5008685;28;20140;-73
2023/07/09 04:55:19;;;;;;;0.95;0.50;;;20.30;99.90;;;;;;5000330;28;20521;-73
2023/07/09 04:57:45;;;;;;;1.27;0.50;;;20.30;99.90;;;;;;5005992;28;20050;-73
2023/07/09 05:00:11;;;;;;;1.17;0.40;;;20.40;99.90;;;;;;5005982;28;20046;-73
2023/07/09 05:02:37;;;;;;;0.40;0.30;;;20.70;99.90;;;;;;5005855;28;20038;-73
2023/07/09 05:05:03;;;;;;;0.95;0.32;;;21.00;99.90;;;;;;5004720;28;20474;-73
2023/07/09 05:07:29;;;;;;;0.90;0.20;;;21.40;99.90;;;;;;5006769;28;20046;-73
2023/07/09 05:09:54;;;;;;;1.15;0.40;;;21.80;99.90;;;;;;5001642;28;20053;-73
2023/07/09 05:12:20;;;;;;;0.95;0.50;;;22.10;99.90;;;;;;4990718;28;20073;-73
2023/07/09 05:14:46;;;;;;;0.60;0.35;;;22.20;99.90;;;;;;4999580;28;20445;-73
2023/07/09 05:17:12;;;;;;;0.45;0.20;;;22.30;99.90;;;;;;5004247;28;20490;-72
2023/07/09 05:19:38;;;;;;;0.60;0.30;;;22.30;99.90;;;;;;5004982;28;20129;-72
2023/07/09 05:22:04;;;;;;;1.05;0.60;;;22.20;99.90;;;;;;4995248;28;20033;-72
2023/07/09 05:24:30;;;;;;;1.13;0.60;;;22.20;99.90;;;;;;5001795;28;20041;-72
2023/07/09 05:26:56;;;;;;;0.40;0.30;;;22.20;99.90;;;;;;5003032;28;20415;-72
2023/07/09 05:29:22;;;;;;;0.68;0.40;;;22.20;99.90;;;;;;5003246;28;20116;-72
2023/07/09 05:31:48;;;;;;;1.02;0.30;;;22.20;99.90;;;;;;4976674;28;20050;-72
2023/07/09 05:34:14;;;;;;;1.05;0.52;;;22.20;99.90;;;;;;5001201;28;20419;-72
2023/07/09 05:36:39;;;;;;;0.98;0.50;;;22.10;99.90;;;;;;5001854;28;20038;-72
2023/07/09 05:39:05;;;;;;;1.75;0.60;;;22.20;99.90;;;;;;5003500;28;20116;-72
2023/07/09 05:41:31;;;;;;;2.30;1.13;;;22.10;99.90;;;;;;4995330;28;20133;-72
2023/07/09 05:43:57;;;;;;;1.10;0.47;;;22.10;99.90;;;;;;5000143;28;20129;-72
2023/07/09 05:46:23;;;;;;;0.85;0.45;;;22.10;99.90;;;;;;5004974;28;20098;-72
2023/07/09 05:48:49;;;;;;;0.50;0.20;;;22.10;99.90;;;;;;5003689;28;20041;-72
2023/07/09 05:51:15;;;;;;;2.22;0.70;;;22.10;99.90;;;;;;5005049;28;20048;-72
2023/07/09 05:53:41;;;;;;;1.10;0.43;;;22.10;99.90;;;;;;5006587;28;20204;-72
2023/07/09 05:56:07;;;;;;;0.82;0.43;;;22.10;99.90;;;;;;5007005;28;20111;-72
2023/07/09 05:58:33;;;;;;;1.40;0.75;;;22.20;99.90;;;;;;5006361;28;20160;-72
2023/07/09 06:00:58;;;;;;;1.65;0.60;;;22.20;99.90;;;;;;5005038;28;20173;-72
2023/07/09 06:03:26;;;;;;;0.55;0.30;;;22.20;99.90;;;;;;5005200;28;20042;-72
2023/07/09 06:05:52;;;;;;;0.77;0.50;;;22.30;99.90;;;;;;5008512;28;20536;-72
2023/07/09 06:08:20;;;;;;;2.15;0.43;;;22.30;99.90;;;;;;5007348;28;20519;-72
2023/07/09 06:10:57;;;;;;;1.20;0.52;;;22.40;99.90;;;;;;4989084;28;20033;-72
2023/07/09 06:13:24;;;;;;;0.90;0.40;;;22.40;99.90;;;;;;5006949;28;20038;-72
2023/07/09 06:15:52;;;;;;;1.17;0.35;;;22.50;99.90;;;;;;5003579;28;20492;-72
2023/07/09 06:18:18;;;;;;;1.35;0.60;;;22.60;99.90;;;;;;5005058;28;20045;-72
2023/07/09 06:21:03;;;;;;;1.52;0.57;;;22.70;99.90;;;;;;5004806;28;20042;-72
2023/07/09 06:23:30;;;;;;;0.98;0.50;;;22.80;99.90;;;;;;5007344;28;20069;-72
2023/07/09 06:25:56;;;;;;;1.55;0.68;;;22.90;99.90;;;;;;4988010;28;20667;-72
2023/07/09 06:28:24;;;;;;;0.85;0.50;;;23.00;99.90;;;;;;5003658;28;20046;-72
2023/07/09 06:30:50;;;;;;;0.65;0.40;;;23.10;99.90;;;;;;5002059;28;20103;-72
2023/07/09 06:33:18;;;;;;;2.47;0.60;;;23.20;99.90;;;;;;5006319;28;20121;-72
2023/07/09 06:35:49;;;;;;;1.08;0.65;;;23.30;99.90;;;;;;5008275;28;20025;-71
2023/07/09 06:38:16;;;;;;;1.08;0.47;;;23.50;99.90;;;;;;4987350;28;20049;-71
2023/07/09 06:40:42;;;;;;;2.20;0.57;;;23.60;99.90;;;;;;5003811;28;20133;-72
2023/07/09 06:43:08;;;;;;;1.30;0.68;;;23.70;99.90;;;;;;4988307;28;20133;-71
2023/07/09 06:45:33;;;;;;;0.90;0.60;;;23.90;99.90;;;;;;5006525;28;20092;-72
2023/07/09 06:48:00;;;;;;;0.68;0.50;;;24.00;99.90;;;;;;5006177;28;20042;-72
2023/07/09 06:50:26;;;;;;;1.95;0.70;;;24.10;99.90;;;;;;5006010;28;20038;-71
2023/07/09 06:52:51;;;;;;;1.45;0.55;;;24.10;99.90;;;;;;5007252;28;20042;-71
2023/07/09 06:55:18;;;;;;;1.10;0.52;;;24.20;99.90;;;;;;5003673;28;20054;-71
2023/07/09 06:57:44;;;;;;;1.25;0.65;;;24.30;99.90;;;;;;5017414;28;20058;-71
2023/07/09 07:00:11;;;;;;;1.52;0.80;;;24.40;99.90;;;;;;5003246;28;20038;-71
2023/07/09 07:02:37;;;;;;;2.83;1.00;;;24.60;99.90;;;;;;5004300;28;20079;-71
2023/07/09 07:05:03;;;;;;;1.70;0.70;;;24.70;99.90;;;;;;5003583;28;20042;-71
2023/07/09 07:07:28;;;;;;;1.88;0.57;;;24.80;99.90;;;;;;5001088;28;20832;-71
2023/07/09 07:09:54;;;;;;;1.80;0.45;;;25.00;99.90;;;;;;5004955;28;20048;-71
2023/07/09 07:12:40;;;;;;;2.80;0.68;;;25.20;99.90;;;;;;5004246;28;20414;-71
2023/07/09 07:15:06;;;;;;;1.45;0.70;;;25.20;99.90;;;;;;5005502;28;20037;-71
2023/07/09 07:17:32;;;;;;;0.80;0.38;;;25.40;99.90;;;;;;5005469;28;20522;-71
2023/07/09 07:19:57;;;;;;;1.58;0.50;;;25.50;99.90;;;;;;5003871;28;20121;-71
2023/07/09 07:22:23;;;;;;;0.80;0.50;;;25.60;99.90;;;;;;5005741;28;20135;-71
2023/07/09 07:24:49;;;;;;;0.98;0.43;;;25.70;99.90;;;;;;5002732;28;20054;-71
2023/07/09 07:27:14;;;;;;;1.02;0.40;;;25.90;99.90;;;;;;5001863;28;20415;-71
2023/07/09 07:29:40;;;;;;;1.38;0.75;;;26.00;99.90;;;;;;4987886;28;20038;-71
2023/07/09 07:32:06;;;;;;;2.60;0.47;;;26.20;99.90;;;;;;5006372;28;20139;-71
2023/07/09 07:34:32;;;;;;;1.88;0.60;;;26.30;99.90;;;;;;5003617;28;20125;-71
2023/07/09 07:36:58;;;;;;;0.70;0.40;;;26.50;99.90;;;;;;5005804;28;20426;-71
2023/07/09 07:39:24;;;;;;;1.73;0.60;;;26.60;99.90;;;;;;5009569;28;20466;-71
2023/07/09 07:41:50;;;;;;;0.75;0.35;;;26.80;99.90;;;;;;5006626;28;20041;-71
2023/07/09 07:44:17;;;;;;;0.73;0.40;;;26.90;99.90;;;;;;5007562;28;20054;-71
2023/07/09 07:46:43;;;;;;;1.10;0.55;;;27.10;99.90;;;;;;5006361;28;20577;-70
2023/07/09 07:49:09;;;;;;;0.40;0.25;;;27.20;99.90;;;;;;4993327;28;20042;-70
2023/07/09 07:51:35;;;;;;;0.38;0.25;;;27.20;99.90;;;;;;5008753;28;20042;-70
2023/07/09 07:54:00;;;;;;;1.80;0.60;;;27.40;99.90;;;;;;5005056;28;20103;-70
2023/07/09 07:56:26;;;;;;;0.75;0.30;;;27.50;99.90;;;;;;5003823;28;20705;-70
2023/07/09 07:58:52;;;;;;;1.33;0.50;;;27.60;99.90;;;;;;5007035;28;20433;-71
2023/07/09 08:01:17;;;;;;;0.70;0.40;;;27.80;99.90;;;;;;5007255;28;20466;-70
2023/07/09 08:03:43;;;;;;;1.45;0.60;;;28.00;99.90;;;;;;5005485;28;20064;-70
2023/07/09 08:06:09;;;;;;;1.15;0.43;;;28.20;99.90;;;;;;5005019;28;20029;-70
2023/07/09 08:08:35;;;;;;;0.82;0.50;;;28.40;99.90;;;;;;5009144;28;20188;-70
2023/07/09 08:11:07;;;;;;;0.98;0.38;;;28.50;99.90;;;;;;5009813;28;20041;-71
2023/07/09 08:13:34;;;;;;;0.77;0.43;;;28.70;99.90;;;;;;5003142;28;20104;-70
2023/07/09 08:16:00;;;;;;;0.95;0.52;;;28.80;99.90;;;;;;5004040;28;20042;-70
2023/07/09 08:18:26;;;;;;;1.27;0.50;;;28.80;99.90;;;;;;5009023;28;20065;-71
2023/07/09 08:20:52;;;;;;;0.65;0.40;;;28.80;99.90;;;;;;5010284;28;20073;-71
2023/07/09 08:23:17;;;;;;;0.68;0.40;;;28.80;99.90;;;;;;5005268;28;20421;-70
2023/07/09 08:25:43;;;;;;;1.60;0.47;;;28.90;99.90;;;;;;5004172;28;20049;-70
2023/07/09 08:28:09;;;;;;;1.38;0.55;;;28.90;99.90;;;;;;5010238;28;20034;-70
2023/07/09 08:30:36;;;;;;;0.82;0.40;;;29.10;99.90;;;;;;4993193;28;20038;-70
2023/07/09 08:33:01;;;;;;;1.00;0.50;;;29.20;99.90;;;;;;5006446;28;20120;-70
2023/07/09 08:35:27;;;;;;;0.45;0.32;;;29.20;99.90;;;;;;5010283;28;20082;-70
2023/07/09 08:37:53;;;;;;;1.08;0.52;;;29.30;99.90;;;;;;5010443;28;20378;-70
2023/07/09 08:40:19;;;;;;;0.90;0.47;;;29.40;99.90;;;;;;5009078;28;20056;-70
2023/07/09 08:42:49;;;;;;;0.73;0.20;;;29.50;99.90;;;;;;4993176;28;20069;-69
2023/07/09 08:45:46;;;;;;;0.88;0.35;;;29.70;99.90;;;;;;5016936;28;20103;-69
2023/07/09 08:48:25;;;;;;;0.68;0.43;;;29.80;99.90;;;;;;4999902;28;20523;-69
2023/07/09 08:50:56;;;;;;;0.43;0.25;;;30.00;99.30;;;;;;5005290;28;20065;-70
2023/07/09 08:53:34;;;;;;;1.67;0.68;;;30.10;99.90;;;;;;5008612;28;20140;-70
2023/07/09 08:56:00;;;;;;;0.95;0.30;;;30.30;99.80;;;;;;5007708;28;20125;-70
2023/07/09 08:58:29;;;;;;;0.50;0.30;;;30.50;99.90;;;;;;5008340;28;20057;-70
2023/07/09 09:01:02;;;;;;;0.80;0.38;;;30.70;99.90;;;;;;4999634;28;20049;-71
2023/07/09 09:03:47;;;;;;;1.15;0.52;;;30.70;98.70;;;;;;5007702;28;20046;-70
2023/07/09 09:06:17;;;;;;;1.17;0.30;;;31.00;97.90;;;;;;5007284;28;20494;-71
2023/07/09 09:08:51;;;;;;;0.60;0.30;;;31.20;98.50;;;;;;5007674;28;20130;-70
2023/07/09 09:11:29;;;;;;;1.08;0.32;;;31.50;98.90;;;;;;5006045;28;20096;-71
2023/07/09 09:13:58;;;;;;;0.40;0.20;;;31.70;97.60;;;;;;5006684;28;20510;-71
2023/07/09 09:16:35;;;;;;;0.93;0.20;;;31.90;95.80;;;;;;5009139;28;20495;-71
2023/07/09 09:19:01;;;;;;;0.57;0.30;;;32.10;95.50;;;;;;5004846;28;20053;-72
2023/07/09 09:21:33;;;;;;;0.60;0.30;;;32.20;93.00;;;;;;4987926;28;20081;-72
2023/07/09 09:24:19;;;;;;;0.90;0.30;;;32.30;94.40;;;;;;4990241;28;20034;-71
2023/07/09 09:26:47;;;;;;;0.63;0.30;;;32.40;93.60;;;;;;5003854;28;20121;-71
2023/07/09 09:29:16;;;;;;;0.60;0.15;;;32.40;92.10;;;;;;5005343;28;20117;-71
2023/07/09 09:31:52;;;;;;;1.15;0.40;;;32.40;92.70;;;;;;5002107;28;20200;-72
2023/07/09 09:34:24;;;;;;;0.93;0.68;;;32.40;93.10;;;;;;5007670;28;20041;-71
2023/07/09 09:36:50;;;;;;;2.93;0.97;;;32.40;92.40;;;;;;5003711;28;20120;-71
2023/07/09 09:39:17;;;;;;;2.00;0.80;;;32.50;92.00;;;;;;4988702;28;20054;-72
2023/07/09 09:41:45;;;;;;;1.00;0.57;;;32.70;92.10;;;;;;5000865;28;20056;-72
2023/07/09 09:44:25;;;;;;;0.80;0.60;;;32.90;89.10;;;;;;5002505;28;20416;-69
2023/07/09 09:46:51;;;;;;;0.98;0.30;;;33.00;87.20;;;;;;4976879;28;22013;-71
2023/07/09 09:49:17;;;;;;;0.77;0.40;;;33.10;90.70;;;;;;4997723;28;20050;-71
2023/07/09 09:51:45;;;;;;;0.90;0.47;;;33.20;89.90;;;;;;5002410;28;20041;-71
2023/07/09 09:54:27;;;;;;;0.73;0.30;;;33.30;90.60;;;;;;4989220;28;20497;-70
2023/07/09 09:56:54;;;;;;;0.43;0.30;;;33.30;89.30;;;;;;4998432;28;20058;-68
2023/07/09 09:59:46;;;;;;;1.48;0.32;;;33.30;90.00;;;;;;4999396;28;20038;-71
2023/07/09 10:02:24;;;;;;;1.90;1.02;;;33.40;89.60;;;;;;5000768;28;20058;-71
2023/07/09 10:04:50;;;;;;;0.70;0.50;;;33.60;88.90;;;;;;5005769;28;20152;-69
2023/07/09 10:07:39;;;;;;;1.00;0.32;;;33.70;89.90;;;;;;4998164;28;20042;-71
2023/07/09 10:10:17;;;;;;;0.63;0.30;;;33.80;88.30;;;;;;5006510;28;20049;-68
2023/07/09 10:12:53;;;;;;;0.55;0.30;;;33.90;87.30;;;;;;5016762;28;20053;-69
2023/07/09 10:15:28;;;;;;;0.95;0.40;;;33.90;86.70;;;;;;5002545;28;20044;-70
2023/07/09 10:18:30;;;;;;;0.47;0.30;;;33.90;85.30;;;;;;4996429;28;20117;-70
2023/07/09 10:21:18;;;;;;;1.13;0.45;;;33.90;83.30;;;;;;4978866;28;20192;-71
2023/07/09 10:23:59;;;;;;;0.50;0.30;;;34.10;83.70;;;;;;5000788;28;20038;-71
2023/07/09 10:26:41;;;;;;;0.60;0.22;;;34.20;84.20;;;;;;5004453;28;20054;-70
2023/07/09 10:29:28;;;;;;;1.88;0.50;;;34.30;82.60;;;;;;4998522;28;20040;-70
2023/07/09 10:32:04;;;;;;;0.50;0.30;;;34.10;77.40;;;;;;4999640;28;20576;-69
2023/07/09 10:34:41;;;;;;;1.48;0.20;;;34.20;79.30;;;;;;5003832;28;20105;-70
2023/07/09 10:37:19;;;;;;;0.52;0.22;;;34.30;79.50;;;;;;5004363;28;20080;-69
2023/07/09 10:39:51;;;;;;;1.05;0.17;;;34.20;73.70;;;;;;5006662;28;20049;-69
2023/07/09 10:42:28;;;;;;;0.73;0.30;;;34.20;76.50;;;;;;4998903;28;20045;-69
2023/07/09 10:45:02;;;;;;;0.77;0.28;;;34.20;76.90;;;;;;5000196;28;20446;-69
2023/07/09 10:47:36;;;;;;;0.82;0.20;;;34.20;75.70;;;;;;4999149;28;20129;-69
2023/07/09 10:50:05;;;;;;;0.55;0.20;;;34.40;71.10;;;;;;5005853;28;20077;-70
2023/07/09 10:52:38;;;;;;;0.55;0.30;;;34.50;72.60;;;;;;5004158;28;20481;-71
2023/07/09 10:55:26;;;;;;;15.32;8.40;;;34.60;69.30;;;;;;4997995;28;20125;-71
2023/07/09 10:57:55;;;;;;;1.60;0.75;;;34.50;65.80;;;;;;5006140;28;20054;-71
2023/07/09 11:00:27;;;;;;;1.50;0.70;;;34.40;70.70;;;;;;4998670;28;20046;-72
2023/07/09 11:03:01;;;;;;;0.93;0.50;;;34.60;72.40;;;;;;4999591;28;20057;-71
2023/07/09 11:05:27;;;;;;;0.70;0.38;;;34.90;72.20;;;;;;4983516;28;20055;-71
2023/07/09 11:08:13;;;;;;;0.82;0.43;;;35.00;72.30;;;;;;5007776;28;20485;-71
2023/07/09 11:11:02;;;;;;;0.73;0.28;;;34.90;67.70;;;;;;5002948;28;20588;-71
2023/07/09 11:13:41;;;;;;;1.48;0.38;;;35.00;70.70;;;;;;4998161;28;20702;-71
2023/07/09 11:16:11;;;;;;;0.57;0.20;;;34.90;69.60;;;;;;5002767;28;20041;-72
2023/07/09 11:18:37;;;;;;;1.40;0.40;;;34.90;70.10;;;;;;4992695;28;20374;-71
2023/07/09 11:21:17;;;;;;;0.80;0.22;;;35.00;69.50;;;;;;5005540;28;20052;-71
2023/07/09 11:23:48;;;;;;;0.85;0.32;;;35.20;68.00;;;;;;5004012;28;20077;-71
2023/07/09 11:26:36;;;;;;;0.20;0.10;;;35.30;68.40;;;;;;5017897;28;20093;-72
2023/07/09 11:29:02;;;;;;;1.65;0.50;;;35.30;66.40;;;;;;5004719;28;20072;-72
2023/07/09 11:31:44;;;;;;;0.30;0.20;;;35.20;63.00;;;;;;4992955;28;20037;-72
2023/07/09 11:34:17;;;;;;;0.63;0.20;;;35.20;64.70;;;;;;4999079;28;20101;-72
2023/07/09 11:36:54;;;;;;;0.65;0.38;;;35.20;66.90;;;;;;5003120;28;20050;-72
2023/07/09 11:39:40;;;;;;;0.65;0.35;;;35.40;67.30;;;;;;5007359;28;20042;-72
2023/07/09 11:42:29;;;;;;;0.50;0.20;;;35.50;64.20;;;;;;5006905;28;20045;-72
2023/07/09 11:45:09;;;;;;;0.75;0.30;;;35.60;63.50;;;;;;5014732;28;20054;-72
2023/07/09 11:47:55;;;;;;;0.80;0.20;;;35.70;63.40;;;;;;5005719;28;20052;-72
2023/07/09 11:50:31;;;;;;;0.60;0.32;;;35.70;63.50;;;;;;5007404;28;20519;-72
2023/07/09 11:53:12;;;;;;;0.20;0.10;;;35.70;62.80;;;;;;5003368;28;20077;-72
2023/07/09 11:55:46;;;;;;;0.63;0.30;;;35.80;61.30;;;;;;5013967;28;20042;-72
2023/07/09 11:58:17;;;;;;;0.98;0.20;;;36.00;63.90;;;;;;5007160;28;20038;-72
2023/07/09 12:00:55;;;;;;;0.82;0.20;;;36.20;64.20;;;;;;5016459;28;20074;-72
2023/07/09 12:03:24;;;;;;;0.30;0.15;;;36.50;60.90;;;;;;5002730;28;20418;-71
2023/07/09 12:05:55;;;;;;;0.93;0.43;;;36.60;64.70;;;;;;5003228;28;20077;-71
2023/07/09 12:08:35;;;;;;;1.10;0.20;;;36.70;60.90;;;;;;5009821;28;20517;-71
2023/07/09 12:11:01;;;;;;;0.28;0.13;;;36.70;59.20;;;;;;4999693;28;20058;-71
2023/07/09 12:13:27;;;;;;;0.98;0.43;;;36.70;60.50;;;;;;5006360;28;20030;-71
2023/07/09 12:15:53;;;;;;;0.70;0.20;;;36.60;61.40;;;;;;5003431;28;20371;-71
2023/07/09 12:18:18;;;;;;;0.15;0.13;;;36.60;61.70;;;;;;5009065;28;20037;-71
2023/07/09 12:20:53;;;;;;;0.45;0.22;;;36.70;61.50;;;;;;4998676;28;20046;-71
2023/07/09 12:23:21;;;;;;;1.58;0.40;;;36.50;61.40;;;;;;5007250;28;20045;-71
2023/07/09 12:25:49;;;;;;;1.10;0.40;;;36.50;61.40;;;;;;5005480;28;20038;-71
2023/07/09 12:28:16;;;;;;;0.50;0.17;;;36.40;60.30;;;;;;5003836;28;20042;-71
2023/07/09 12:30:48;;;;;;;0.95;0.35;;;36.30;61.10;;;;;;4992137;28;20039;-71
2023/07/09 12:33:25;;;;;;;0.88;0.30;;;36.40;62.00;;;;;;5008939;28;20038;-70
2023/07/09 12:35:58;;;;;;;0.47;0.20;;;36.50;60.10;;;;;;5011785;28;20037;-71
2023/07/09 12:38:26;;;;;;;1.02;0.20;;;36.60;59.60;;;;;;5004069;28;20066;-70
2023/07/09 12:40:53;;;;;;;0.60;0.20;;;36.80;59.40;;;;;;5005590;28;20140;-71
2023/07/09 12:43:26;;;;;;;0.50;0.22;;;36.70;58.80;;;;;;5006893;28;20048;-70
2023/07/09 12:45:58;;;;;;;0.70;0.30;;;36.60;56.80;;;;;;5009362;28;20069;-71
2023/07/09 12:48:29;;;;;;;0.57;0.32;;;36.20;57.60;;;;;;5007011;28;20041;-70
2023/07/09 12:50:57;;;;;;;0.40;0.10;;;36.10;57.20;;;;;;5007983;28;20049;-70
2023/07/09 12:53:26;;;;;;;0.30;0.30;;;36.00;58.40;;;;;;5011232;28;20038;-71
2023/07/09 12:55:55;;;;;;;0.32;0.22;;;36.00;58.70;;;;;;5010266;28;20041;-71
2023/07/09 12:58:25;;;;;;;0.40;0.20;;;36.20;58.20;;;;;;5008613;28;20081;-71
2023/07/09 13:00:56;;;;;;;0.20;0.10;;;36.10;59.00;;;;;;5005247;28;20553;-71